sensor_id;sensor_type;location;lat;lon;timestamp;P1;durP1;ratioP1;P2;durP2;ratioP2
78581;SDS011;67878;46.242;5.974;2023-05-10T00:01:10;0.60;;;0.50;;
78581;SDS011;67878;46.242;5.974;2023-05-10T00:03:36;1.15;;;0.40;;
78581;SDS011;67878;46.242;5.974;2023-05-10T00:06:02;0.57;;;0.40;;
78581;SDS011;67878;46.242;5.974;2023-05-10T00:08:27;1.13;;;0.50;;
78581;SDS011;67878;46.242;5.974;2023-05-10T00:10:53;0.50;;;0.45;;
78581;SDS011;67878;46.242;5.974;2023-05-10T00:13:18;0.60;;;0.30;;
78581;SDS011;67878;46.242;5.974;2023-05-10T00:15:44;0.90;;;0.43;;
78581;SDS011;67878;46.242;5.974;2023-05-10T00:18:10;0.60;;;0.40;;
78581;SDS011;67878;46.242;5.974;2023-05-10T00:20:36;0.40;;;0.40;;
78581;SDS011;67878;46.242;5.974;2023-05-10T00:23:02;0.55;;;0.32;;
78581;SDS011;67878;46.242;5.974;2023-05-10T00:25:27;0.50;;;0.40;;
78581;SDS011;67878;46.242;5.974;2023-05-10T00:27:52;0.85;;;0.50;;
78581;SDS011;67878;46.242;5.974;2023-05-10T00:30:20;0.80;;;0.47;;
78581;SDS011;67878;46.242;5.974;2023-05-10T00:32:46;1.13;;;0.50;;
78581;SDS011;67878;46.242;5.974;2023-05-10T00:35:13;1.55;;;0.40;;
78581;SDS011;67878;46.242;5.974;2023-05-10T00:37:39;0.50;;;0.40;;
78581;SDS011;67878;46.242;5.974;2023-05-10T00:40:05;0.52;;;0.30;;
78581;SDS011;67878;46.242;5.974;2023-05-10T00:42:32;0.70;;;0.45;;
78581;SDS011;67878;46.242;5.974;2023-05-10T00:44:57;0.68;;;0.52;;
78581;SDS011;67878;46.242;5.974;2023-05-10T00:47:23;0.55;;;0.30;;
78581;SDS011;67878;46.242;5.974;2023-05-10T00:49:49;0.90;;;0.30;;
78581;SDS011;67878;46.242;5.974;2023-05-10T00:52:15;0.98;;;0.40;;
78581;SDS011;67878;46.242;5.974;2023-05-10T00:54:40;0.60;;;0.45;;
78581;SDS011;67878;46.242;5.974;2023-05-10T00:57:06;0.68;;;0.32;;
78581;SDS011;67878;46.242;5.974;2023-05-10T00:59:32;0.65;;;0.40;;
78581;SDS011;67878;46.242;5.974;2023-05-10T01:01:57;0.90;;;0.45;;
78581;SDS011;67878;46.242;5.974;2023-05-10T01:04:23;1.27;;;0.60;;
78581;SDS011;67878;46.242;5.974;2023-05-10T01:06:52;0.30;;;0.30;;
78581;SDS011;67878;46.242;5.974;2023-05-10T01:09:19;0.50;;;0.40;;
78581;SDS011;67878;46.242;5.974;2023-05-10T01:11:45;1.63;;;0.45;;
78581;SDS011;67878;46.242;5.974;2023-05-10T01:14:11;0.60;;;0.40;;
78581;SDS011;67878;46.242;5.974;2023-05-10T01:16:38;1.10;;;0.50;;
78581;SDS011;67878;46.242;5.974;2023-05-10T01:19:12;1.52;;;0.50;;
78581;SDS011;67878;46.242;5.974;2023-05-10T01:22:04;0.60;;;0.35;;
78581;SDS011;67878;46.242;5.974;2023-05-10T01:36:40;1.50;;;0.40;;
78581;SDS011;67878;46.242;5.974;2023-05-10T01:38:47;1.00;;;0.38;;
78581;SDS011;67878;46.242;5.974;2023-05-10T01:41:30;0.40;;;0.30;;
78581;SDS011;67878;46.242;5.974;2023-05-10T01:47:07;0.73;;;0.30;;
78581;SDS011;67878;46.242;5.974;2023-05-10T01:49:40;0.40;;;0.30;;
78581;SDS011;67878;46.242;5.974;2023-05-10T01:52:10;1.23;;;0.40;;
78581;SDS011;67878;46.242;5.974;2023-05-10T01:54:38;1.15;;;0.50;;
78581;SDS011;67878;46.242;5.974;2023-05-10T01:57:08;0.30;;;0.22;;
78581;SDS011;67878;46.242;5.974;2023-05-10T01:59:35;0.50;;;0.30;;
78581;SDS011;67878;46.242;5.974;2023-05-10T02:02:02;0.50;;;0.30;;
78581;SDS011;67878;46.242;5.974;2023-05-10T02:04:28;0.50;;;0.30;;
78581;SDS011;67878;46.242;5.974;2023-05-10T02:06:54;0.98;;;0.32;;
78581;SDS011;67878;46.242;5.974;2023-05-10T02:09:21;0.28;;;0.28;;
78581;SDS011;67878;46.242;5.974;2023-05-10T02:11:47;0.73;;;0.30;;
78581;SDS011;67878;46.242;5.974;2023-05-10T02:14:13;0.88;;;0.50;;
78581;SDS011;67878;46.242;5.974;2023-05-10T02:16:40;0.50;;;0.40;;
78581;SDS011;67878;46.242;5.974;2023-05-10T02:19:06;0.60;;;0.30;;
78581;SDS011;67878;46.242;5.974;2023-05-10T02:21:33;0.50;;;0.30;;
78581;SDS011;67878;46.242;5.974;2023-05-10T02:23:59;0.85;;;0.50;;
78581;SDS011;67878;46.242;5.974;2023-05-10T02:26:26;0.50;;;0.30;;
78581;SDS011;67878;46.242;5.974;2023-05-10T02:28:52;1.35;;;0.50;;
78581;SDS011;67878;46.242;5.974;2023-05-10T02:31:23;0.40;;;0.30;;
78581;SDS011;67878;46.242;5.974;2023-05-10T02:33:49;0.40;;;0.38;;
78581;SDS011;67878;46.242;5.974;2023-05-10T02:36:15;0.60;;;0.30;;
78581;SDS011;67878;46.242;5.974;2023-05-10T02:38:41;0.55;;;0.30;;
78581;SDS011;67878;46.242;5.974;2023-05-10T02:41:07;0.50;;;0.40;;
78581;SDS011;67878;46.242;5.974;2023-05-10T02:43:33;0.75;;;0.38;;
78581;SDS011;67878;46.242;5.974;2023-05-10T02:46:00;0.30;;;0.30;;
78581;SDS011;67878;46.242;5.974;2023-05-10T02:48:26;0.68;;;0.40;;
78581;SDS011;67878;46.242;5.974;2023-05-10T02:50:52;1.00;;;0.40;;
78581;SDS011;67878;46.242;5.974;2023-05-10T02:53:22;2.10;;;0.32;;
78581;SDS011;67878;46.242;5.974;2023-05-10T02:55:49;0.73;;;0.35;;
78581;SDS011;67878;46.242;5.974;2023-05-10T02:58:16;1.13;;;0.40;;
78581;SDS011;67878;46.242;5.974;2023-05-10T03:00:44;0.20;;;0.20;;
78581;SDS011;67878;46.242;5.974;2023-05-10T03:03:10;0.40;;;0.30;;
78581;SDS011;67878;46.242;5.974;2023-05-10T03:05:35;1.83;;;0.40;;
78581;SDS011;67878;46.242;5.974;2023-05-10T03:08:01;1.40;;;0.57;;
78581;SDS011;67878;46.242;5.974;2023-05-10T03:10:29;0.63;;;0.32;;
78581;SDS011;67878;46.242;5.974;2023-05-10T03:16:07;0.65;;;0.25;;
78581;SDS011;67878;46.242;5.974;2023-05-10T03:18:50;0.43;;;0.30;;
78581;SDS011;67878;46.242;5.974;2023-05-10T03:21:21;0.77;;;0.30;;
78581;SDS011;67878;46.242;5.974;2023-05-10T03:23:57;1.40;;;0.20;;
78581;SDS011;67878;46.242;5.974;2023-05-10T03:26:26;0.47;;;0.30;;
78581;SDS011;67878;46.242;5.974;2023-05-10T03:28:54;0.50;;;0.20;;
78581;SDS011;67878;46.242;5.974;2023-05-10T03:31:22;1.05;;;0.50;;
78581;SDS011;67878;46.242;5.974;2023-05-10T03:33:51;1.13;;;0.40;;
78581;SDS011;67878;46.242;5.974;2023-05-10T03:36:18;0.85;;;0.30;;
78581;SDS011;67878;46.242;5.974;2023-05-10T03:38:45;0.82;;;0.47;;
78581;SDS011;67878;46.242;5.974;2023-05-10T03:41:14;1.40;;;0.28;;
78581;SDS011;67878;46.242;5.974;2023-05-10T03:46:26;0.95;;;0.38;;
78581;SDS011;67878;46.242;5.974;2023-05-10T03:48:53;0.55;;;0.32;;
78581;SDS011;67878;46.242;5.974;2023-05-10T03:51:23;0.70;;;0.38;;
78581;SDS011;67878;46.242;5.974;2023-05-10T03:53:57;1.52;;;0.40;;
78581;SDS011;67878;46.242;5.974;2023-05-10T03:56:30;0.82;;;0.50;;
78581;SDS011;67878;46.242;5.974;2023-05-10T03:59:00;0.93;;;0.30;;
78581;SDS011;67878;46.242;5.974;2023-05-10T04:01:34;1.63;;;0.47;;
78581;SDS011;67878;46.242;5.974;2023-05-10T04:04:06;0.50;;;0.38;;
78581;SDS011;67878;46.242;5.974;2023-05-10T04:06:32;0.50;;;0.40;;
78581;SDS011;67878;46.242;5.974;2023-05-10T04:09:01;1.08;;;0.40;;
78581;SDS011;67878;46.242;5.974;2023-05-10T04:11:29;0.75;;;0.30;;
78581;SDS011;67878;46.242;5.974;2023-05-10T04:13:54;1.08;;;0.38;;
78581;SDS011;67878;46.242;5.974;2023-05-10T04:16:19;0.50;;;0.30;;
78581;SDS011;67878;46.242;5.974;2023-05-10T04:18:46;0.40;;;0.30;;
78581;SDS011;67878;46.242;5.974;2023-05-10T04:21:19;1.88;;;0.40;;
78581;SDS011;67878;46.242;5.974;2023-05-10T04:23:52;0.20;;;0.20;;
78581;SDS011;67878;46.242;5.974;2023-05-10T04:26:30;1.05;;;0.32;;
78581;SDS011;67878;46.242;5.974;2023-05-10T04:28:58;1.13;;;0.32;;
78581;SDS011;67878;46.242;5.974;2023-05-10T04:31:26;0.63;;;0.40;;
78581;SDS011;67878;46.242;5.974;2023-05-10T04:34:00;1.02;;;0.40;;
78581;SDS011;67878;46.242;5.974;2023-05-10T04:36:27;0.57;;;0.32;;
78581;SDS011;67878;46.242;5.974;2023-05-10T04:39:01;0.95;;;0.30;;
78581;SDS011;67878;46.242;5.974;2023-05-10T04:41:37;0.77;;;0.40;;
78581;SDS011;67878;46.242;5.974;2023-05-10T04:44:07;0.20;;;0.20;;
78581;SDS011;67878;46.242;5.974;2023-05-10T04:46:36;1.35;;;0.40;;
78581;SDS011;67878;46.242;5.974;2023-05-10T04:49:04;0.45;;;0.40;;
78581;SDS011;67878;46.242;5.974;2023-05-10T04:51:37;1.02;;;0.32;;
78581;SDS011;67878;46.242;5.974;2023-05-10T04:54:07;0.47;;;0.20;;
78581;SDS011;67878;46.242;5.974;2023-05-10T04:56:35;0.50;;;0.30;;
78581;SDS011;67878;46.242;5.974;2023-05-10T04:59:04;0.85;;;0.35;;
78581;SDS011;67878;46.242;5.974;2023-05-10T05:01:35;1.63;;;0.50;;
78581;SDS011;67878;46.242;5.974;2023-05-10T05:04:10;1.95;;;0.40;;
78581;SDS011;67878;46.242;5.974;2023-05-10T05:06:39;0.65;;;0.30;;
78581;SDS011;67878;46.242;5.974;2023-05-10T05:09:12;0.20;;;0.20;;
78581;SDS011;67878;46.242;5.974;2023-05-10T05:11:42;0.55;;;0.30;;
78581;SDS011;67878;46.242;5.974;2023-05-10T05:14:18;0.40;;;0.30;;
78581;SDS011;67878;46.242;5.974;2023-05-10T05:16:46;1.65;;;0.30;;
78581;SDS011;67878;46.242;5.974;2023-05-10T05:19:16;1.48;;;0.73;;
78581;SDS011;67878;46.242;5.974;2023-05-10T05:21:43;1.35;;;0.50;;
78581;SDS011;67878;46.242;5.974;2023-05-10T05:24:13;0.65;;;0.40;;
78581;SDS011;67878;46.242;5.974;2023-05-10T05:26:46;0.47;;;0.25;;
78581;SDS011;67878;46.242;5.974;2023-05-10T05:29:14;1.23;;;0.40;;
78581;SDS011;67878;46.242;5.974;2023-05-10T05:31:43;1.65;;;0.30;;
78581;SDS011;67878;46.242;5.974;2023-05-10T05:34:10;0.88;;;0.32;;
78581;SDS011;67878;46.242;5.974;2023-05-10T05:36:41;1.08;;;0.40;;
78581;SDS011;67878;46.242;5.974;2023-05-10T05:39:09;0.40;;;0.30;;
78581;SDS011;67878;46.242;5.974;2023-05-10T05:41:36;1.08;;;0.50;;
78581;SDS011;67878;46.242;5.974;2023-05-10T05:44:06;1.23;;;0.20;;
78581;SDS011;67878;46.242;5.974;2023-05-10T05:46:35;0.65;;;0.30;;
78581;SDS011;67878;46.242;5.974;2023-05-10T05:49:03;0.73;;;0.60;;
78581;SDS011;67878;46.242;5.974;2023-05-10T05:51:30;1.13;;;0.50;;
78581;SDS011;67878;46.242;5.974;2023-05-10T05:54:01;1.48;;;0.40;;
78581;SDS011;67878;46.242;5.974;2023-05-10T05:56:32;0.85;;;0.40;;
78581;SDS011;67878;46.242;5.974;2023-05-10T05:58:59;1.42;;;0.35;;
78581;SDS011;67878;46.242;5.974;2023-05-10T06:01:26;0.52;;;0.30;;
78581;SDS011;67878;46.242;5.974;2023-05-10T06:03:58;0.57;;;0.32;;
78581;SDS011;67878;46.242;5.974;2023-05-10T06:06:26;0.77;;;0.47;;
78581;SDS011;67878;46.242;5.974;2023-05-10T06:08:54;1.63;;;0.43;;
78581;SDS011;67878;46.242;5.974;2023-05-10T06:11:25;1.50;;;0.45;;
78581;SDS011;67878;46.242;5.974;2023-05-10T06:13:58;3.63;;;0.70;;
78581;SDS011;67878;46.242;5.974;2023-05-10T06:16:30;3.03;;;0.55;;
78581;SDS011;67878;46.242;5.974;2023-05-10T06:19:00;2.60;;;0.60;;
78581;SDS011;67878;46.242;5.974;2023-05-10T06:21:33;1.88;;;0.43;;
78581;SDS011;67878;46.242;5.974;2023-05-10T06:23:59;1.10;;;0.40;;
78581;SDS011;67878;46.242;5.974;2023-05-10T06:26:34;1.27;;;0.40;;
78581;SDS011;67878;46.242;5.974;2023-05-10T06:29:03;1.00;;;0.40;;
78581;SDS011;67878;46.242;5.974;2023-05-10T06:31:34;0.73;;;0.52;;
78581;SDS011;67878;46.242;5.974;2023-05-10T06:34:03;0.75;;;0.30;;
78581;SDS011;67878;46.242;5.974;2023-05-10T06:36:29;1.75;;;0.55;;
78581;SDS011;67878;46.242;5.974;2023-05-10T06:39:00;2.05;;;0.40;;
78581;SDS011;67878;46.242;5.974;2023-05-10T06:41:27;1.00;;;0.30;;
78581;SDS011;67878;46.242;5.974;2023-05-10T06:43:54;0.90;;;0.40;;
78581;SDS011;67878;46.242;5.974;2023-05-10T06:46:26;1.83;;;0.40;;
78581;SDS011;67878;46.242;5.974;2023-05-10T06:48:57;1.40;;;0.70;;
78581;SDS011;67878;46.242;5.974;2023-05-10T06:51:23;1.83;;;0.60;;
78581;SDS011;67878;46.242;5.974;2023-05-10T06:53:54;1.02;;;0.50;;
78581;SDS011;67878;46.242;5.974;2023-05-10T06:56:22;0.63;;;0.40;;
78581;SDS011;67878;46.242;5.974;2023-05-10T06:58:49;1.15;;;0.50;;
78581;SDS011;67878;46.242;5.974;2023-05-10T07:01:19;2.58;;;0.60;;
78581;SDS011;67878;46.242;5.974;2023-05-10T07:03:48;1.60;;;0.63;;
78581;SDS011;67878;46.242;5.974;2023-05-10T07:06:15;1.83;;;0.82;;
78581;SDS011;67878;46.242;5.974;2023-05-10T07:08:44;1.52;;;0.70;;
78581;SDS011;67878;46.242;5.974;2023-05-10T07:11:12;1.90;;;0.80;;
78581;SDS011;67878;46.242;5.974;2023-05-10T07:13:53;3.33;;;0.88;;
78581;SDS011;67878;46.242;5.974;2023-05-10T07:16:26;2.42;;;1.10;;
78581;SDS011;67878;46.242;5.974;2023-05-10T07:18:59;2.20;;;0.70;;
78581;SDS011;67878;46.242;5.974;2023-05-10T07:21:32;3.08;;;1.00;;
78581;SDS011;67878;46.242;5.974;2023-05-10T07:24:01;3.20;;;1.00;;
78581;SDS011;67878;46.242;5.974;2023-05-10T07:26:35;2.25;;;0.70;;
78581;SDS011;67878;46.242;5.974;2023-05-10T07:29:03;2.13;;;1.05;;
78581;SDS011;67878;46.242;5.974;2023-05-10T07:31:30;4.25;;;0.90;;
78581;SDS011;67878;46.242;5.974;2023-05-10T07:33:59;3.05;;;0.70;;
78581;SDS011;67878;46.242;5.974;2023-05-10T07:36:28;2.03;;;0.65;;
78581;SDS011;67878;46.242;5.974;2023-05-10T07:38:57;2.72;;;0.70;;
78581;SDS011;67878;46.242;5.974;2023-05-10T07:41:25;1.90;;;0.65;;
78581;SDS011;67878;46.242;5.974;2023-05-10T07:43:53;2.65;;;0.70;;
78581;SDS011;67878;46.242;5.974;2023-05-10T07:46:21;1.95;;;0.60;;
78581;SDS011;67878;46.242;5.974;2023-05-10T07:48:53;2.08;;;0.80;;
78581;SDS011;67878;46.242;5.974;2023-05-10T07:51:23;1.13;;;0.70;;
78581;SDS011;67878;46.242;5.974;2023-05-10T07:53:55;1.75;;;0.70;;
78581;SDS011;67878;46.242;5.974;2023-05-10T07:56:25;3.08;;;0.80;;
78581;SDS011;67878;46.242;5.974;2023-05-10T07:58:59;2.30;;;0.60;;
78581;SDS011;67878;46.242;5.974;2023-05-10T08:01:26;4.75;;;0.85;;
78581;SDS011;67878;46.242;5.974;2023-05-10T08:03:56;2.72;;;0.90;;
78581;SDS011;67878;46.242;5.974;2023-05-10T08:06:26;1.38;;;0.80;;
78581;SDS011;67878;46.242;5.974;2023-05-10T08:08:56;3.00;;;1.05;;
78581;SDS011;67878;46.242;5.974;2023-05-10T08:11:26;2.22;;;0.90;;
78581;SDS011;67878;46.242;5.974;2023-05-10T08:14:01;2.10;;;0.60;;
78581;SDS011;67878;46.242;5.974;2023-05-10T08:16:30;2.55;;;0.70;;
78581;SDS011;67878;46.242;5.974;2023-05-10T08:18:59;1.55;;;0.77;;
78581;SDS011;67878;46.242;5.974;2023-05-10T08:21:28;3.47;;;0.90;;
78581;SDS011;67878;46.242;5.974;2023-05-10T08:23:58;3.22;;;1.08;;
78581;SDS011;67878;46.242;5.974;2023-05-10T08:26:27;1.95;;;0.88;;
78581;SDS011;67878;46.242;5.974;2023-05-10T08:28:54;1.63;;;0.80;;
78581;SDS011;67878;46.242;5.974;2023-05-10T08:31:21;1.70;;;0.95;;
78581;SDS011;67878;46.242;5.974;2023-05-10T08:33:50;1.23;;;0.73;;
78581;SDS011;67878;46.242;5.974;2023-05-10T08:36:20;2.53;;;0.80;;
78581;SDS011;67878;46.242;5.974;2023-05-10T08:38:50;2.45;;;0.80;;
78581;SDS011;67878;46.242;5.974;2023-05-10T08:41:23;1.65;;;0.63;;
78581;SDS011;67878;46.242;5.974;2023-05-10T08:43:52;2.38;;;0.80;;
78581;SDS011;67878;46.242;5.974;2023-05-10T08:46:21;1.20;;;0.70;;
78581;SDS011;67878;46.242;5.974;2023-05-10T08:48:49;1.60;;;0.70;;
78581;SDS011;67878;46.242;5.974;2023-05-10T08:53:53;1.55;;;0.80;;
78581;SDS011;67878;46.242;5.974;2023-05-10T08:56:20;4.03;;;0.80;;
78581;SDS011;67878;46.242;5.974;2023-05-10T08:58:46;1.38;;;0.77;;
78581;SDS011;67878;46.242;5.974;2023-05-10T09:01:12;2.67;;;0.73;;
78581;SDS011;67878;46.242;5.974;2023-05-10T09:03:38;1.92;;;0.80;;
78581;SDS011;67878;46.242;5.974;2023-05-10T09:06:04;1.30;;;0.60;;
78581;SDS011;67878;46.242;5.974;2023-05-10T09:08:30;1.60;;;0.57;;
78581;SDS011;67878;46.242;5.974;2023-05-10T09:10:56;1.33;;;0.70;;
78581;SDS011;67878;46.242;5.974;2023-05-10T09:13:22;1.60;;;0.80;;
78581;SDS011;67878;46.242;5.974;2023-05-10T09:15:48;2.25;;;0.70;;
78581;SDS011;67878;46.242;5.974;2023-05-10T09:18:14;0.98;;;0.60;;
78581;SDS011;67878;46.242;5.974;2023-05-10T09:20:44;3.33;;;0.77;;
78581;SDS011;67878;46.242;5.974;2023-05-10T09:23:13;1.13;;;0.50;;
78581;SDS011;67878;46.242;5.974;2023-05-10T09:25:41;1.10;;;0.60;;
78581;SDS011;67878;46.242;5.974;2023-05-10T09:28:08;1.70;;;0.70;;
78581;SDS011;67878;46.242;5.974;2023-05-10T09:30:35;1.98;;;0.90;;
78581;SDS011;67878;46.242;5.974;2023-05-10T09:33:01;2.45;;;0.57;;
78581;SDS011;67878;46.242;5.974;2023-05-10T09:35:28;1.05;;;0.60;;
78581;SDS011;67878;46.242;5.974;2023-05-10T09:37:56;1.30;;;0.68;;
78581;SDS011;67878;46.242;5.974;2023-05-10T09:40:23;1.40;;;0.70;;
78581;SDS011;67878;46.242;5.974;2023-05-10T09:45:21;1.38;;;0.77;;
78581;SDS011;67878;46.242;5.974;2023-05-10T09:47:48;2.20;;;0.60;;
78581;SDS011;67878;46.242;5.974;2023-05-10T09:50:13;2.83;;;0.77;;
78581;SDS011;67878;46.242;5.974;2023-05-10T09:53:12;0.80;;;0.50;;
78581;SDS011;67878;46.242;5.974;2023-05-10T09:55:40;1.48;;;0.40;;
78581;SDS011;67878;46.242;5.974;2023-05-10T09:58:15;1.55;;;0.70;;
78581;SDS011;67878;46.242;5.974;2023-05-10T10:00:45;2.58;;;0.60;;
78581;SDS011;67878;46.242;5.974;2023-05-10T10:03:20;2.13;;;0.65;;
78581;SDS011;67878;46.242;5.974;2023-05-10T10:05:46;1.25;;;0.63;;
78581;SDS011;67878;46.242;5.974;2023-05-10T10:08:13;2.55;;;0.60;;
78581;SDS011;67878;46.242;5.974;2023-05-10T10:10:40;2.65;;;0.90;;
78581;SDS011;67878;46.242;5.974;2023-05-10T10:13:07;3.22;;;1.05;;
78581;SDS011;67878;46.242;5.974;2023-05-10T10:15:36;1.27;;;0.60;;
78581;SDS011;67878;46.242;5.974;2023-05-10T10:18:03;2.97;;;0.90;;
78581;SDS011;67878;46.242;5.974;2023-05-10T10:20:39;1.83;;;0.80;;
78581;SDS011;67878;46.242;5.974;2023-05-10T10:23:08;5.22;;;1.08;;
78581;SDS011;67878;46.242;5.974;2023-05-10T10:25:33;1.90;;;0.70;;
78581;SDS011;67878;46.242;5.974;2023-05-10T10:30:49;1.55;;;0.90;;
78581;SDS011;67878;46.242;5.974;2023-05-10T10:36:06;3.65;;;0.80;;
78581;SDS011;67878;46.242;5.974;2023-05-10T10:41:28;4.05;;;0.60;;
78581;SDS011;67878;46.242;5.974;2023-05-10T10:49:52;3.38;;;0.60;;
78581;SDS011;67878;46.242;5.974;2023-05-10T10:52:43;1.75;;;0.90;;
78581;SDS011;67878;46.242;5.974;2023-05-10T10:55:15;3.03;;;0.90;;
78581;SDS011;67878;46.242;5.974;2023-05-10T10:57:56;1.15;;;0.80;;
78581;SDS011;67878;46.242;5.974;2023-05-10T11:07:58;2.03;;;0.50;;
78581;SDS011;67878;46.242;5.974;2023-05-10T11:10:25;1.05;;;0.50;;
78581;SDS011;67878;46.242;5.974;2023-05-10T11:13:01;2.63;;;0.60;;
78581;SDS011;67878;46.242;5.974;2023-05-10T11:15:31;1.20;;;0.50;;
78581;SDS011;67878;46.242;5.974;2023-05-10T11:17:57;2.85;;;0.50;;
78581;SDS011;67878;46.242;5.974;2023-05-10T11:20:23;1.42;;;0.45;;
78581;SDS011;67878;46.242;5.974;2023-05-10T11:22:58;1.35;;;0.40;;
78581;SDS011;67878;46.242;5.974;2023-05-10T11:25:26;1.05;;;0.40;;
78581;SDS011;67878;46.242;5.974;2023-05-10T11:27:53;0.50;;;0.30;;
78581;SDS011;67878;46.242;5.974;2023-05-10T11:30:18;1.75;;;0.40;;
78581;SDS011;67878;46.242;5.974;2023-05-10T11:32:48;3.22;;;0.50;;
78581;SDS011;67878;46.242;5.974;2023-05-10T11:35:17;0.88;;;0.52;;
78581;SDS011;67878;46.242;5.974;2023-05-10T11:37:43;1.27;;;0.40;;
78581;SDS011;67878;46.242;5.974;2023-05-10T11:40:13;1.65;;;0.70;;
78581;SDS011;67878;46.242;5.974;2023-05-10T11:42:39;1.67;;;0.40;;
78581;SDS011;67878;46.242;5.974;2023-05-10T11:45:05;2.03;;;0.40;;
78581;SDS011;67878;46.242;5.974;2023-05-10T11:47:31;1.65;;;0.40;;
78581;SDS011;67878;46.242;5.974;2023-05-10T11:49:57;2.28;;;0.50;;
78581;SDS011;67878;46.242;5.974;2023-05-10T11:52:22;6.60;;;0.57;;
78581;SDS011;67878;46.242;5.974;2023-05-10T11:54:51;3.15;;;0.52;;
78581;SDS011;67878;46.242;5.974;2023-05-10T11:57:18;2.50;;;0.45;;
78581;SDS011;67878;46.242;5.974;2023-05-10T11:59:45;2.55;;;0.40;;
78581;SDS011;67878;46.242;5.974;2023-05-10T12:02:11;3.72;;;0.52;;
78581;SDS011;67878;46.242;5.974;2023-05-10T12:04:38;2.70;;;0.52;;
78581;SDS011;67878;46.242;5.974;2023-05-10T12:07:04;5.05;;;0.70;;
78581;SDS011;67878;46.242;5.974;2023-05-10T12:09:29;2.00;;;0.57;;
78581;SDS011;67878;46.242;5.974;2023-05-10T12:11:55;0.90;;;0.40;;
78581;SDS011;67878;46.242;5.974;2023-05-10T12:14:21;2.63;;;0.43;;
78581;SDS011;67878;46.242;5.974;2023-05-10T12:16:47;0.65;;;0.30;;
78581;SDS011;67878;46.242;5.974;2023-05-10T12:19:13;1.00;;;0.40;;
78581;SDS011;67878;46.242;5.974;2023-05-10T12:21:44;1.33;;;0.57;;
78581;SDS011;67878;46.242;5.974;2023-05-10T12:24:09;2.72;;;0.52;;
78581;SDS011;67878;46.242;5.974;2023-05-10T12:26:35;2.88;;;0.70;;
78581;SDS011;67878;46.242;5.974;2023-05-10T12:29:14;1.27;;;0.30;;
78581;SDS011;67878;46.242;5.974;2023-05-10T12:31:53;0.73;;;0.40;;
78581;SDS011;67878;46.242;5.974;2023-05-10T12:34:23;1.25;;;0.50;;
78581;SDS011;67878;46.242;5.974;2023-05-10T12:36:54;1.08;;;0.40;;
78581;SDS011;67878;46.242;5.974;2023-05-10T12:39:20;1.60;;;0.25;;
78581;SDS011;67878;46.242;5.974;2023-05-10T12:41:45;0.57;;;0.30;;
78581;SDS011;67878;46.242;5.974;2023-05-10T12:44:11;0.55;;;0.40;;
78581;SDS011;67878;46.242;5.974;2023-05-10T12:46:36;0.70;;;0.30;;
78581;SDS011;67878;46.242;5.974;2023-05-10T12:49:02;1.13;;;0.40;;
78581;SDS011;67878;46.242;5.974;2023-05-10T12:51:27;0.52;;;0.30;;
78581;SDS011;67878;46.242;5.974;2023-05-10T12:53:53;1.75;;;0.35;;
78581;SDS011;67878;46.242;5.974;2023-05-10T12:56:19;0.98;;;0.40;;
78581;SDS011;67878;46.242;5.974;2023-05-10T12:58:45;1.02;;;0.30;;
78581;SDS011;67878;46.242;5.974;2023-05-10T13:01:13;0.55;;;0.20;;
78581;SDS011;67878;46.242;5.974;2023-05-10T13:03:39;1.65;;;0.40;;
78581;SDS011;67878;46.242;5.974;2023-05-10T13:06:05;1.30;;;0.40;;
78581;SDS011;67878;46.242;5.974;2023-05-10T13:08:31;1.67;;;0.50;;
78581;SDS011;67878;46.242;5.974;2023-05-10T13:10:58;0.80;;;0.40;;
78581;SDS011;67878;46.242;5.974;2023-05-10T13:13:24;0.20;;;0.20;;
78581;SDS011;67878;46.242;5.974;2023-05-10T13:15:50;1.63;;;0.30;;
78581;SDS011;67878;46.242;5.974;2023-05-10T13:18:15;0.47;;;0.30;;
78581;SDS011;67878;46.242;5.974;2023-05-10T13:20:41;0.77;;;0.35;;
78581;SDS011;67878;46.242;5.974;2023-05-10T13:23:08;1.35;;;0.43;;
78581;SDS011;67878;46.242;5.974;2023-05-10T13:25:33;0.57;;;0.25;;
78581;SDS011;67878;46.242;5.974;2023-05-10T13:27:59;0.50;;;0.40;;
78581;SDS011;67878;46.242;5.974;2023-05-10T13:30:24;0.30;;;0.25;;
78581;SDS011;67878;46.242;5.974;2023-05-10T13:32:50;1.58;;;0.52;;
78581;SDS011;67878;46.242;5.974;2023-05-10T13:35:15;2.70;;;0.50;;
78581;SDS011;67878;46.242;5.974;2023-05-10T13:37:41;1.35;;;0.30;;
78581;SDS011;67878;46.242;5.974;2023-05-10T13:40:06;0.25;;;0.25;;
78581;SDS011;67878;46.242;5.974;2023-05-10T13:42:32;1.33;;;0.30;;
78581;SDS011;67878;46.242;5.974;2023-05-10T13:44:58;0.77;;;0.30;;
78581;SDS011;67878;46.242;5.974;2023-05-10T13:47:25;0.95;;;0.30;;
78581;SDS011;67878;46.242;5.974;2023-05-10T13:49:51;0.70;;;0.30;;
78581;SDS011;67878;46.242;5.974;2023-05-10T13:52:17;0.30;;;0.30;;
78581;SDS011;67878;46.242;5.974;2023-05-10T13:54:43;1.35;;;0.30;;
78581;SDS011;67878;46.242;5.974;2023-05-10T13:57:08;0.55;;;0.32;;
78581;SDS011;67878;46.242;5.974;2023-05-10T13:59:34;0.40;;;0.30;;
78581;SDS011;67878;46.242;5.974;2023-05-10T14:01:59;0.68;;;0.30;;
78581;SDS011;67878;46.242;5.974;2023-05-10T14:04:27;0.80;;;0.20;;
78581;SDS011;67878;46.242;5.974;2023-05-10T14:06:53;1.10;;;0.30;;
78581;SDS011;67878;46.242;5.974;2023-05-10T14:09:18;1.38;;;0.50;;
78581;SDS011;67878;46.242;5.974;2023-05-10T14:11:44;1.08;;;0.30;;
78581;SDS011;67878;46.242;5.974;2023-05-10T14:14:10;1.75;;;0.40;;
78581;SDS011;67878;46.242;5.974;2023-05-10T14:16:36;0.30;;;0.20;;
78581;SDS011;67878;46.242;5.974;2023-05-10T14:19:01;0.40;;;0.28;;
78581;SDS011;67878;46.242;5.974;2023-05-10T14:21:27;0.60;;;0.22;;
78581;SDS011;67878;46.242;5.974;2023-05-10T14:23:54;0.88;;;0.40;;
78581;SDS011;67878;46.242;5.974;2023-05-10T14:26:20;1.40;;;0.20;;
78581;SDS011;67878;46.242;5.974;2023-05-10T14:28:48;0.50;;;0.30;;
78581;SDS011;67878;46.242;5.974;2023-05-10T14:31:21;0.47;;;0.22;;
78581;SDS011;67878;46.242;5.974;2023-05-10T14:33:56;1.25;;;0.30;;
78581;SDS011;67878;46.242;5.974;2023-05-10T14:36:22;0.30;;;0.28;;
78581;SDS011;67878;46.242;5.974;2023-05-10T14:38:48;0.68;;;0.30;;
78581;SDS011;67878;46.242;5.974;2023-05-10T14:41:14;0.45;;;0.30;;
78581;SDS011;67878;46.242;5.974;2023-05-10T14:43:42;0.93;;;0.40;;
78581;SDS011;67878;46.242;5.974;2023-05-10T14:46:08;1.38;;;0.30;;
78581;SDS011;67878;46.242;5.974;2023-05-10T14:48:40;0.40;;;0.30;;
78581;SDS011;67878;46.242;5.974;2023-05-10T14:51:08;0.50;;;0.30;;
78581;SDS011;67878;46.242;5.974;2023-05-10T14:53:33;0.70;;;0.30;;
78581;SDS011;67878;46.242;5.974;2023-05-10T14:55:59;0.45;;;0.25;;
78581;SDS011;67878;46.242;5.974;2023-05-10T14:58:26;0.20;;;0.20;;
78581;SDS011;67878;46.242;5.974;2023-05-10T15:00:52;0.35;;;0.20;;
78581;SDS011;67878;46.242;5.974;2023-05-10T15:03:18;0.40;;;0.15;;
78581;SDS011;67878;46.242;5.974;2023-05-10T15:05:43;0.30;;;0.30;;
78581;SDS011;67878;46.242;5.974;2023-05-10T15:08:09;0.82;;;0.50;;
78581;SDS011;67878;46.242;5.974;2023-05-10T15:10:34;1.17;;;0.22;;
78581;SDS011;67878;46.242;5.974;2023-05-10T15:13:00;1.20;;;0.63;;
78581;SDS011;67878;46.242;5.974;2023-05-10T15:15:26;1.10;;;0.30;;
78581;SDS011;67878;46.242;5.974;2023-05-10T15:17:51;1.55;;;0.28;;
78581;SDS011;67878;46.242;5.974;2023-05-10T15:20:17;0.55;;;0.25;;
78581;SDS011;67878;46.242;5.974;2023-05-10T15:22:42;0.38;;;0.20;;
78581;SDS011;67878;46.242;5.974;2023-05-10T15:25:08;0.68;;;0.40;;
78581;SDS011;67878;46.242;5.974;2023-05-10T15:27:34;0.55;;;0.30;;
78581;SDS011;67878;46.242;5.974;2023-05-10T15:30:00;0.22;;;0.20;;
78581;SDS011;67878;46.242;5.974;2023-05-10T15:32:26;0.60;;;0.20;;
78581;SDS011;67878;46.242;5.974;2023-05-10T15:34:51;0.65;;;0.30;;
78581;SDS011;67878;46.242;5.974;2023-05-10T15:37:17;1.83;;;0.50;;
78581;SDS011;67878;46.242;5.974;2023-05-10T15:39:42;0.75;;;0.30;;
78581;SDS011;67878;46.242;5.974;2023-05-10T15:42:08;0.45;;;0.30;;